createdAt,value
2022-12-23T00:00:30.385Z,11.82
2022-12-23T00:06:00.916Z,18.48
2022-12-23T00:11:26.562Z,14.80
2022-12-23T00:16:51.888Z,11.88
2022-12-23T00:22:15.036Z,10.50
2022-12-23T00:27:41.839Z,8.70
2022-12-23T00:33:10.781Z,9.45
2022-12-23T00:38:57.526Z,9.70
2022-12-23T00:44:28.393Z,11.50
2022-12-23T00:49:57.885Z,11.25
2022-12-23T00:55:22.551Z,10.57
2022-12-23T01:06:40.457Z,13.77
2022-12-23T01:12:04.982Z,12.60
2022-12-23T01:17:34.913Z,14.50
2022-12-23T01:22:58.227Z,14.85
2022-12-23T01:28:27.148Z,14.25
2022-12-23T01:33:55.120Z,14.70
2022-12-23T01:39:25.697Z,21.83
2022-12-23T01:44:58.418Z,18.27
2022-12-23T01:50:33.021Z,16.73
2022-12-23T01:56:04.704Z,19.30
2022-12-23T02:01:51.073Z,13.45
2022-12-23T02:07:35.646Z,14.93
2022-12-23T02:13:08.523Z,14.68
2022-12-23T02:18:56.147Z,13.77
2022-12-23T02:24:56.445Z,15.02
2022-12-23T02:30:43.999Z,11.65
2022-12-23T02:36:19.678Z,13.13
2022-12-23T02:41:55.960Z,14.27
2022-12-23T02:47:31.019Z,19.05
2022-12-23T02:53:05.791Z,16.15
2022-12-23T02:58:35.066Z,15.95
2022-12-23T03:04:03.395Z,16.60
2022-12-23T03:09:37.326Z,19.45
2022-12-23T03:15:18.705Z,22.98
2022-12-23T03:20:54.064Z,16.48
2022-12-23T03:26:23.170Z,18.52
2022-12-23T03:31:54.285Z,21.27
2022-12-23T03:37:26.088Z,16.33
2022-12-23T03:42:56.254Z,14.23
2022-12-23T03:48:27.779Z,16.75
2022-12-23T03:54:02.652Z,14.00
2022-12-23T03:59:34.348Z,17.42
2022-12-23T04:05:16.747Z,15.07
2022-12-23T04:10:47.766Z,17.73
2022-12-23T04:16:17.150Z,18.15
2022-12-23T04:21:40.192Z,17.80
2022-12-23T04:27:07.775Z,15.88
2022-12-23T04:32:33.291Z,18.08
2022-12-23T04:38:01.987Z,19.25
2022-12-23T04:43:32.267Z,19.50
2022-12-23T04:48:55.188Z,20.35
2022-12-23T04:54:18.863Z,23.20
2022-12-23T04:59:44.111Z,20.60
2022-12-23T05:05:08.230Z,21.60
2022-12-23T05:10:31.781Z,25.52
2022-12-23T05:15:56.847Z,19.92
2022-12-23T05:21:19.387Z,15.98
2022-12-23T05:26:50.754Z,18.02
2022-12-23T05:32:17.662Z,17.35
2022-12-23T05:37:41.758Z,17.30
2022-12-23T05:43:06.513Z,20.90
2022-12-23T05:48:30.900Z,27.50
2022-12-23T05:53:54.768Z,15.30
2022-12-23T05:59:20.775Z,13.10
2022-12-23T06:04:46.058Z,15.95
2022-12-23T06:10:11.928Z,18.27
2022-12-23T06:15:35.556Z,14.02
2022-12-23T06:20:59.721Z,15.18
2022-12-23T06:26:28.984Z,20.52
2022-12-23T06:31:54.470Z,22.95
2022-12-23T06:37:20.270Z,25.80
2022-12-23T06:42:44.433Z,27.45
2022-12-23T06:48:08.637Z,25.65
2022-12-23T06:53:34.258Z,31.15
2022-12-23T06:59:02.764Z,28.45
2022-12-23T07:04:32.113Z,30.30
2022-12-23T07:09:57.753Z,25.15
2022-12-23T07:15:24.937Z,29.40
2022-12-23T07:20:47.685Z,28.15
2022-12-23T07:26:15.189Z,31.00
2022-12-23T07:31:45.161Z,32.67
2022-12-23T07:37:14.191Z,31.08
2022-12-23T07:42:47.084Z,35.10
2022-12-23T07:48:15.818Z,38.45
2022-12-23T07:53:40.014Z,34.70
2022-12-23T07:59:10.459Z,40.88
2022-12-23T08:04:45.641Z,33.17
2022-12-23T08:10:15.032Z,36.25
2022-12-23T08:15:40.158Z,33.45
2022-12-23T08:21:13.051Z,34.65
2022-12-23T08:26:36.886Z,36.13
2022-12-23T08:32:04.957Z,33.80
2022-12-23T08:37:34.166Z,42.78
2022-12-23T08:43:03.533Z,44.67
2022-12-23T08:48:34.432Z,31.25
2022-12-23T08:54:04.578Z,29.30
2022-12-23T08:59:33.067Z,31.60
2022-12-23T09:04:57.759Z,26.85
2022-12-23T09:10:27.102Z,27.77
2022-12-23T09:15:52.158Z,21.52
2022-12-23T09:21:24.868Z,21.30
2022-12-23T09:26:50.950Z,27.30
2022-12-23T09:32:20.067Z,22.10
2022-12-23T09:37:50.286Z,36.13
2022-12-23T09:43:29.127Z,27.05
2022-12-23T09:49:01.478Z,29.58
2022-12-23T09:54:29.265Z,30.77
2022-12-23T10:00:04.030Z,26.88
2022-12-23T10:05:36.946Z,30.45
2022-12-23T10:11:08.028Z,27.60
2022-12-23T10:16:41.693Z,38.72
2022-12-23T10:22:16.225Z,30.00
2022-12-23T10:27:46.589Z,32.15
2022-12-23T10:33:22.252Z,35.80
2022-12-23T10:39:00.279Z,31.80
2022-12-23T10:44:47.303Z,35.22
2022-12-23T10:50:55.382Z,28.20
2022-12-23T10:56:24.415Z,44.97
2022-12-23T11:02:02.631Z,30.87
2022-12-23T11:07:47.345Z,37.47
2022-12-23T11:13:25.936Z,32.13
2022-12-23T11:19:01.636Z,30.67
2022-12-23T11:24:37.984Z,34.17
2022-12-23T11:30:19.344Z,29.80
2022-12-23T11:35:49.543Z,35.33
2022-12-23T11:41:21.986Z,29.42
2022-12-23T11:46:51.183Z,33.28
2022-12-23T11:52:23.469Z,24.38
2022-12-23T11:57:53.821Z,29.15
2022-12-23T12:03:27.613Z,37.53
2022-12-23T12:09:01.080Z,32.95
2022-12-23T12:14:33.893Z,31.40
2022-12-23T12:20:06.010Z,38.72
2022-12-23T12:25:41.738Z,35.58
2022-12-23T12:31:18.206Z,32.67
2022-12-23T12:36:57.153Z,33.33
2022-12-23T12:42:33.914Z,27.03
2022-12-23T12:48:22.663Z,32.08
2022-12-23T12:54:06.599Z,28.75
2022-12-23T12:59:39.945Z,38.30
2022-12-23T13:05:38.344Z,34.60
2022-12-23T17:12:24.298Z,43.38
2022-12-23T17:17:51.461Z,41.47
2022-12-23T17:23:27.457Z,46.03
2022-12-23T17:28:53.530Z,44.35
2022-12-23T17:34:24.577Z,54.15
2022-12-23T17:39:53.563Z,41.83
2022-12-23T17:45:25.634Z,44.35
2022-12-23T17:50:52.999Z,46.28
2022-12-23T17:56:18.311Z,47.13
2022-12-23T18:01:48.774Z,40.92
2022-12-23T18:07:13.797Z,38.70
2022-12-23T18:12:46.004Z,53.70
2022-12-23T18:18:26.102Z,46.72
2022-12-23T18:23:59.664Z,48.13
2022-12-23T18:29:28.514Z,50.22
2022-12-23T18:34:59.060Z,47.30
2022-12-23T18:40:26.796Z,53.17
2022-12-23T18:45:56.223Z,54.92
2022-12-23T18:51:26.833Z,48.78
2022-12-23T18:56:55.583Z,54.35
2022-12-23T19:02:20.301Z,55.58
2022-12-23T19:07:51.767Z,44.45
2022-12-23T19:13:21.598Z,55.50
2022-12-23T19:18:51.339Z,42.88
2022-12-23T19:24:22.039Z,51.05
2022-12-23T19:29:50.647Z,42.10
2022-12-23T19:35:20.101Z,35.42
2022-12-23T19:40:58.917Z,35.45
2022-12-23T19:46:27.998Z,40.92
2022-12-23T19:51:57.676Z,49.05
2022-12-23T19:57:28.015Z,47.10
2022-12-23T20:08:29.008Z,37.05
2022-12-23T20:13:59.318Z,32.13
2022-12-23T20:19:29.057Z,30.92
2022-12-23T20:24:59.433Z,33.97
2022-12-23T20:30:30.133Z,32.45
2022-12-23T20:35:59.607Z,35.33
2022-12-23T20:41:30.327Z,34.08
2022-12-23T20:47:00.856Z,35.42
2022-12-23T20:52:29.532Z,34.88
2022-12-23T20:58:18.704Z,33.00
2022-12-23T21:03:48.591Z,31.30
2022-12-23T21:09:17.945Z,33.00
2022-12-23T21:14:46.812Z,32.20
2022-12-23T21:20:17.121Z,35.83
2022-12-23T21:25:46.706Z,37.85
2022-12-23T21:31:16.808Z,43.10
2022-12-23T21:42:15.344Z,37.67
2022-12-23T21:47:44.298Z,34.67
2022-12-23T21:53:14.980Z,35.92
2022-12-23T22:04:12.989Z,40.67
2022-12-23T22:09:42.725Z,39.80
2022-12-23T22:15:11.628Z,44.28
2022-12-23T22:20:44.277Z,55.55
2022-12-23T22:26:24.803Z,50.55
2022-12-23T22:31:54.998Z,49.60
2022-12-23T22:42:50.956Z,53.33
2022-12-23T22:48:14.765Z,51.15
2022-12-23T22:53:38.471Z,43.58
2022-12-23T22:59:03.079Z,43.17
2022-12-23T23:04:31.853Z,42.92
2022-12-23T23:09:56.851Z,41.13
2022-12-23T23:15:23.504Z,45.10
2022-12-23T23:20:52.950Z,42.35
2022-12-23T23:26:22.402Z,35.65
2022-12-23T23:31:53.086Z,41.53
2022-12-23T23:37:22.342Z,52.00
2022-12-23T23:42:50.523Z,50.75
2022-12-23T23:48:16.379Z,50.80
2022-12-23T23:53:45.584Z,47.72
2022-12-23T23:59:14.800Z,47.47
